Time;durP1;ratioP1;P1;durP2;ratioP2;P2;SDS_P1;SDS_P2;PMS_P1;PMS_P2;Temp;Humidity;BMP_temperature;BMP_pressure;BME280_temperature;BME280_humidity;BME280_pressure;Samples;Min_cycle;Max_cycle;Signal;HPM_P1;HPM_P2
2022/10/13 00:00:18;;;;;;;;;25.33;22.67;;;;;17.51;62.79;-19676.94;4986774;28;45484;-78
2022/10/13 00:02:43;;;;;;;;;29.67;26.67;;;;;17.55;62.50;-19677.75;4994182;27;46211;-78
2022/10/13 00:05:08;;;;;;;;;35.33;29.67;;;;;17.56;62.75;-19678.00;5011132;27;46397;-79
2022/10/13 00:07:34;;;;;;;;;34.00;25.67;;;;;17.57;62.64;-19678.41;4992265;27;45626;-78
2022/10/13 00:09:59;;;;;;;;;24.67;20.67;;;;;17.52;62.93;-19677.06;4979220;28;45551;-78
2022/10/13 00:12:24;;;;;;;;;28.00;24.00;;;;;17.60;62.44;-19679.09;4984024;27;45488;-78
2022/10/13 00:14:50;;;;;;;;;25.00;22.67;;;;;17.60;62.44;-19679.09;4993987;27;45477;-78
2022/10/13 00:17:15;;;;;;;;;28.33;25.00;;;;;17.59;62.59;-19678.94;5015384;27;45664;-78
2022/10/13 00:19:40;;;;;;;;;28.67;24.67;;;;;17.60;62.38;-19679.09;4989961;27;45774;-78
2022/10/13 00:22:06;;;;;;;;;27.00;23.67;;;;;17.60;62.01;-19679.22;4997793;27;45401;-78
2022/10/13 00:24:31;;;;;;;;;25.33;25.33;;;;;17.58;62.07;-19678.53;4991601;27;45607;-78
2022/10/13 00:26:56;;;;;;;;;26.33;23.67;;;;;17.58;62.34;-19678.69;4987437;27;45405;-78
2022/10/13 00:29:22;;;;;;;;;26.33;26.33;;;;;17.61;62.13;-19679.50;4982150;27;45507;-78
2022/10/13 00:31:47;;;;;;;;;28.67;26.67;;;;;17.57;62.24;-19678.41;4988056;27;46713;-78
2022/10/13 00:34:13;;;;;;;;;33.00;27.50;;;;;17.65;62.09;-19680.56;4970940;28;45793;-78
2022/10/13 00:36:38;;;;;;;;;25.33;22.00;;;;;17.61;62.37;-19679.34;4991117;27;45381;-78
2022/10/13 00:39:03;;;;;;;;;31.33;26.00;;;;;17.61;61.84;-19679.34;4999951;27;45537;-78
2022/10/13 00:41:29;;;;;;;;;24.33;19.67;;;;;17.68;61.94;-19681.34;4976098;27;48153;-78
2022/10/13 00:44:24;;;;;;;;;23.33;23.33;;;;;17.66;62.03;-19680.81;4986660;27;45445;-78
2022/10/13 00:46:50;;;;;;;;;24.00;22.67;;;;;17.74;61.90;-19682.81;4986272;27;45470;-78
2022/10/13 00:49:15;;;;;;;;;26.67;24.00;;;;;17.71;61.86;-19682.03;4992377;28;45435;-78
2022/10/13 00:51:45;;;;;;;;;24.67;23.00;;;;;17.71;61.66;-19682.03;4981955;27;46057;-78
2022/10/13 00:54:16;;;;;;;;;21.00;20.00;;;;;17.70;62.04;-19681.75;4989423;28;45475;-77
2022/10/13 00:56:42;;;;;;;;;24.67;23.33;;;;;17.63;62.09;-19680.03;4967068;27;45563;-77
2022/10/13 00:59:16;;;;;;;;;19.33;19.33;;;;;17.68;61.73;-19681.34;4996141;27;45721;-77
2022/10/13 01:01:41;;;;;;;;;28.67;23.33;;;;;17.69;61.75;-19681.50;4985777;27;45573;-78
2022/10/13 01:04:07;;;;;;;;;19.00;18.00;;;;;17.69;61.97;-19681.50;4988563;27;45390;-78
2022/10/13 01:06:33;;;;;;;;;19.33;17.33;;;;;17.59;61.82;-19678.94;5000553;28;45553;-78
2022/10/13 01:08:58;;;;;;;;;21.67;20.00;;;;;17.61;62.23;-19679.50;4979417;28;45618;-78
2022/10/13 01:11:49;;;;;;;;;22.00;21.00;;;;;17.61;62.19;-19679.50;5000245;27;45523;-77
2022/10/13 01:14:28;;;;;;;;;21.00;20.67;;;;;17.60;62.28;-19679.09;4982708;27;45325;-77
2022/10/13 01:16:59;;;;;;;;;22.33;21.00;;;;;17.56;62.42;-19678.16;4988889;27;45471;-78
2022/10/13 01:19:34;;;;;;;;;19.33;19.33;;;;;17.54;62.31;-19677.47;4975995;27;45489;-77
2022/10/13 01:22:17;;;;;;;;;22.00;21.67;;;;;17.50;62.62;-19676.53;5000737;27;45555;-77
2022/10/13 01:24:43;;;;;;;;;20.00;17.33;;;;;17.49;62.82;-19676.41;5007132;28;45396;-77
2022/10/13 01:27:49;;;;;;;;;24.33;22.67;;;;;17.41;63.04;-19674.13;5023106;27;45335;-78
2022/10/13 01:30:20;;;;;;;;;20.33;18.67;;;;;17.35;62.84;-19672.66;5027793;28;45625;-77
2022/10/13 01:32:56;;;;;;;;;22.67;19.67;;;;;17.44;62.77;-19674.94;5013795;28;46101;-77
2022/10/13 01:35:31;;;;;;;;;18.67;18.00;;;;;17.44;62.70;-19674.94;5023967;28;45528;-78
2022/10/13 01:37:56;;;;;;;;;23.33;18.33;;;;;17.43;62.94;-19674.66;5032738;28;45573;-78
2022/10/13 01:40:28;;;;;;;;;26.00;23.67;;;;;17.41;63.00;-19674.28;5035826;28;45572;-77
2022/10/13 01:43:02;;;;;;;;;21.67;21.67;;;;;17.43;62.78;-19674.66;5009845;28;46804;-78
2022/10/13 01:45:34;;;;;;;;;25.00;21.67;;;;;17.41;63.29;-19674.13;5030912;28;45536;-77
2022/10/13 01:48:02;;;;;;;;;24.00;23.00;;;;;17.44;62.96;-19674.94;5032328;28;45611;-77
2022/10/13 01:50:29;;;;;;;;;24.33;21.67;;;;;17.42;63.27;-19674.41;5030410;28;45558;-77
2022/10/13 01:52:58;;;;;;;;;19.67;19.00;;;;;17.45;63.16;-19675.22;5033741;28;46439;-77
2022/10/13 01:55:23;;;;;;;;;29.00;24.67;;;;;17.39;63.31;-19673.72;5028512;28;45581;-77
2022/10/13 01:57:49;;;;;;;;;25.00;23.67;;;;;17.47;62.73;-19675.88;5028596;28;45466;-77
2022/10/13 02:00:20;;;;;;;;;25.00;20.67;;;;;17.49;63.07;-19676.28;5030124;28;45499;-78
2022/10/13 02:03:25;;;;;;;;;23.33;21.67;;;;;17.39;63.01;-19673.59;4999094;27;46678;-78
2022/10/13 02:06:04;;;;;;;;;22.33;21.00;;;;;17.51;62.94;-19676.81;4981204;27;45617;-78
2022/10/13 02:08:49;;;;;;;;;18.67;17.67;;;;;17.55;63.09;-19677.75;4986513;27;45453;-79
2022/10/13 02:11:18;;;;;;;;;19.33;15.67;;;;;17.57;62.79;-19678.28;4995808;27;45453;-79
2022/10/13 02:14:03;;;;;;;;;16.67;15.33;;;;;17.60;63.30;-19679.09;4993048;27;46433;-79
2022/10/13 02:16:32;;;;;;;;;10.67;10.67;;;;;17.55;62.77;-19677.88;4996550;27;45625;-79
2022/10/13 02:18:59;;;;;;;;;12.33;11.00;;;;;17.67;62.81;-19680.97;4995560;27;45500;-78
2022/10/13 02:21:25;;;;;;;;;11.33;11.33;;;;;17.65;62.62;-19680.56;4986808;27;45457;-79
2022/10/13 02:23:50;;;;;;;;;14.00;9.67;;;;;17.69;62.84;-19681.63;4996693;27;46283;-79
2022/10/13 02:26:17;;;;;;;;;8.67;7.67;;;;;17.70;62.39;-19681.75;4994007;27;45355;-79
2022/10/13 02:28:42;;;;;;;;;8.00;7.33;;;;;17.79;62.94;-19684.16;4988977;27;45389;-79
2022/10/13 02:31:08;;;;;;;;;7.33;7.33;;;;;17.81;62.16;-19684.72;5002759;27;45407;-77
2022/10/13 02:33:34;;;;;;;;;7.67;6.00;;;;;17.86;62.47;-19685.91;4976550;27;48243;-78
2022/10/13 02:35:59;;;;;;;;;5.00;5.00;;;;;17.67;62.08;-19680.97;4989678;27;45365;-76
2022/10/13 02:38:24;;;;;;;;;5.67;5.00;;;;;17.91;62.00;-19687.38;4978090;27;45452;-76
2022/10/13 02:40:50;;;;;;;;;6.33;6.33;;;;;17.88;61.93;-19686.44;4991209;27;45501;-76
2022/10/13 02:43:15;;;;;;;;;6.33;4.67;;;;;18.02;61.86;-19690.19;4990292;27;47714;-76
2022/10/13 02:45:41;;;;;;;;;6.00;5.00;;;;;18.05;62.35;-19690.84;4992458;27;45827;-76
2022/10/13 02:48:06;;;;;;;;;8.33;5.00;;;;;18.10;61.74;-19692.19;4988281;27;45333;-76
2022/10/13 02:50:32;;;;;;;;;5.33;5.00;;;;;18.03;61.79;-19690.47;4992940;27;45534;-76
2022/10/13 02:52:57;;;;;;;;;8.33;5.33;;;;;18.11;61.93;-19692.59;4994598;27;45507;-76
2022/10/13 02:55:24;;;;;;;;;6.00;6.00;;;;;18.11;61.84;-19692.59;4977053;28;45499;-76
2022/10/13 02:57:49;;;;;;;;;7.33;7.33;;;;;18.12;62.20;-19692.88;4987527;27;45322;-77
2022/10/13 03:00:15;;;;;;;;;7.33;5.00;;;;;18.12;61.93;-19692.88;4986407;27;45751;-77
2022/10/13 03:02:41;;;;;;;;;8.67;7.67;;;;;18.07;62.05;-19691.53;4988099;27;45852;-77
2022/10/13 03:05:07;;;;;;;;;6.00;6.00;;;;;18.12;61.91;-19692.88;5037820;27;45527;-77
2022/10/13 03:07:33;;;;;;;;;9.67;7.33;;;;;18.13;61.73;-19693.13;4978879;27;45399;-77
2022/10/13 03:09:58;;;;;;;;;7.67;6.33;;;;;18.13;62.41;-19693.13;4994561;27;45415;-76
2022/10/13 03:12:23;;;;;;;;;8.33;7.33;;;;;18.07;62.44;-19691.53;4974681;28;48219;-76
2022/10/13 03:14:49;;;;;;;;;4.67;2.00;;;;;18.09;62.01;-19691.94;4997084;27;45428;-76
2022/10/13 03:17:14;;;;;;;;;8.33;6.00;;;;;18.03;62.03;-19690.31;4993084;27;45465;-76
2022/10/13 03:19:39;;;;;;;;;7.33;5.00;;;;;18.11;62.12;-19692.59;4994747;27;45482;-76
2022/10/13 03:22:05;;;;;;;;;5.00;5.00;;;;;18.04;62.51;-19690.72;4988597;27;45451;-76
2022/10/13 03:24:30;;;;;;;;;7.67;6.00;;;;;18.01;61.88;-19689.94;4996274;27;45491;-77
2022/10/13 03:26:56;;;;;;;;;6.00;5.00;;;;;18.08;62.16;-19691.66;4981903;27;45448;-76
2022/10/13 03:29:22;;;;;;;;;5.00;5.00;;;;;18.08;62.15;-19691.66;5004915;27;45437;-76
2022/10/13 03:31:48;;;;;;;;;6.33;4.67;;;;;18.09;62.42;-19691.94;5013582;27;45965;-76
2022/10/13 03:34:15;;;;;;;;;5.33;5.00;;;;;18.00;62.46;-19689.53;4985037;28;45305;-76
2022/10/13 03:36:41;;;;;;;;;5.00;5.00;;;;;18.08;62.23;-19691.66;4988298;27;45491;-76
2022/10/13 03:39:06;;;;;;;;;9.00;5.33;;;;;18.06;62.48;-19691.25;4998206;27;45472;-76
2022/10/13 03:41:32;;;;;;;;;5.33;4.67;;;;;18.00;61.95;-19689.53;4990502;27;46538;-76
2022/10/13 03:43:57;;;;;;;;;8.00;6.67;;;;;17.97;62.38;-19688.72;4997071;27;45341;-77
2022/10/13 03:46:26;;;;;;;;;8.00;7.00;;;;;18.04;62.42;-19690.72;4984768;27;45765;-77
2022/10/13 03:48:51;;;;;;;;;12.00;8.67;;;;;17.92;62.15;-19687.66;4978117;28;45579;-77
2022/10/13 03:51:19;;;;;;;;;12.33;9.33;;;;;18.08;62.32;-19691.66;4992107;27;46006;-77
2022/10/13 03:53:45;;;;;;;;;9.33;9.33;;;;;18.00;62.34;-19689.66;4986998;27;45373;-76
2022/10/13 03:56:17;;;;;;;;;10.33;9.67;;;;;17.89;62.55;-19686.84;4984192;27;45475;-76
2022/10/13 03:58:43;;;;;;;;;11.67;8.67;;;;;17.95;62.34;-19688.19;5002937;27;45517;-77
2022/10/13 04:01:11;;;;;;;;;6.33;6.33;;;;;17.86;62.32;-19686.03;4986431;27;46301;-77
2022/10/13 04:03:36;;;;;;;;;10.33;8.00;;;;;17.92;62.76;-19687.66;4993221;27;46609;-78
2022/10/13 04:06:04;;;;;;;;;9.33;6.33;;;;;17.87;62.48;-19686.31;4990878;27;45499;-77
2022/10/13 04:08:31;;;;;;;;;6.33;6.33;;;;;17.90;62.75;-19686.97;4983871;28;45527;-76
2022/10/13 04:11:07;;;;;;;;;8.00;8.00;;;;;17.92;62.30;-19687.66;4983614;28;47807;-77
2022/10/13 04:13:33;;;;;;;;;7.67;6.00;;;;;17.93;62.84;-19687.91;4978193;27;45424;-78
2022/10/13 04:16:04;;;;;;;;;9.00;9.00;;;;;17.87;62.69;-19686.19;4998032;27;45411;-77
2022/10/13 04:18:29;;;;;;;;;11.00;6.00;;;;;17.93;62.86;-19687.78;4993187;27;45482;-79
2022/10/13 04:20:55;;;;;;;;;9.33;7.00;;;;;17.95;62.99;-19688.19;5009143;27;47226;-77
2022/10/13 04:23:20;;;;;;;;;9.33;7.67;;;;;17.95;62.68;-19688.31;4991096;27;45501;-75
2022/10/13 04:25:46;;;;;;;;;4.33;4.33;;;;;17.95;62.40;-19688.31;4977870;28;45457;-75
2022/10/13 04:28:11;;;;;;;;;7.67;7.67;;;;;17.93;62.92;-19687.91;4994636;27;46028;-76
2022/10/13 04:30:37;;;;;;;;;8.67;6.33;;;;;17.97;62.37;-19688.72;4992626;27;46943;-75
2022/10/13 04:33:02;;;;;;;;;8.00;6.67;;;;;17.99;62.31;-19689.38;5041086;27;45542;-75
2022/10/13 04:35:28;;;;;;;;;5.00;5.00;;;;;17.98;62.30;-19689.13;4998884;27;45455;-77
2022/10/13 04:37:53;;;;;;;;;7.00;6.00;;;;;18.03;61.88;-19690.31;4998254;28;45732;-77
2022/10/13 04:40:19;;;;;;;;;10.00;8.00;;;;;18.07;62.13;-19691.41;5002978;27;45463;-77
2022/10/13 04:42:44;;;;;;;;;9.00;7.67;;;;;18.08;61.96;-19691.66;5038905;28;45529;-77
2022/10/13 04:45:10;;;;;;;;;5.00;5.00;;;;;17.98;61.98;-19688.97;4991260;27;46286;-76
2022/10/13 04:47:36;;;;;;;;;2.00;1.33;;;;;17.97;62.17;-19688.84;4980262;27;45508;-74
2022/10/13 04:50:03;;;;;;;;;7.67;4.33;;;;;18.11;62.04;-19692.47;4980564;28;47468;-75
2022/10/13 04:52:28;;;;;;;;;9.00;5.33;;;;;18.06;61.84;-19691.13;4952774;27;45904;-76
2022/10/13 04:54:53;;;;;;;;;5.00;5.00;;;;;18.02;61.75;-19690.19;4994017;27;45683;-77
2022/10/13 04:57:18;;;;;;;;;6.67;5.00;;;;;18.07;61.77;-19691.41;4992653;27;45476;-76
2022/10/13 04:59:44;;;;;;;;;8.00;5.67;;;;;18.16;61.94;-19693.66;4986929;27;46654;-77
2022/10/13 05:02:09;;;;;;;;;5.00;5.00;;;;;18.08;61.84;-19691.78;4966340;28;45507;-77
2022/10/13 05:04:35;;;;;;;;;4.00;4.00;;;;;18.15;62.12;-19693.53;4975913;28;45517;-75
2022/10/13 05:07:01;;;;;;;;;6.33;4.00;;;;;18.08;62.16;-19691.78;5019121;27;45319;-76
2022/10/13 05:09:26;;;;;;;;;6.67;5.33;;;;;18.05;61.82;-19690.84;4989505;27;45516;-76
2022/10/13 05:11:53;;;;;;;;;7.33;4.00;;;;;17.93;61.74;-19687.91;4985103;27;45382;-77
2022/10/13 05:14:20;;;;;;;;;4.33;4.33;;;;;17.84;62.13;-19685.50;4985481;27;45773;-78
2022/10/13 05:16:45;;;;;;;;;4.67;3.33;;;;;17.78;62.63;-19683.91;5003461;28;45342;-76
2022/10/13 05:19:11;;;;;;;;;9.00;5.67;;;;;17.74;63.34;-19682.81;4978827;28;46459;-76
2022/10/13 05:21:36;;;;;;;;;9.00;6.67;;;;;17.71;63.17;-19682.16;4980357;27;45431;-77
2022/10/13 05:24:04;;;;;;;;;7.33;5.00;;;;;17.59;63.42;-19678.94;4985219;28;45461;-77
2022/10/13 05:26:30;;;;;;;;;6.00;6.00;;;;;17.68;62.87;-19681.34;4996909;28;45489;-78
2022/10/13 05:29:01;;;;;;;;;12.33;8.33;;;;;17.63;63.22;-19679.88;4972819;28;46425;-77
2022/10/13 05:31:28;;;;;;;;;5.00;5.00;;;;;17.61;63.59;-19679.50;4990488;27;45512;-75
2022/10/13 05:33:54;;;;;;;;;7.33;5.00;;;;;17.59;63.72;-19678.81;4997453;28;45536;-75
2022/10/13 05:36:21;;;;;;;;;5.33;5.33;;;;;17.52;63.37;-19677.22;4979447;28;46199;-76
2022/10/13 05:38:55;;;;;;;;;7.00;6.00;;;;;17.46;63.80;-19675.59;4993129;27;45384;-75
2022/10/13 05:41:23;;;;;;;;;8.33;4.33;;;;;17.45;63.96;-19675.22;4990648;27;45551;-75
2022/10/13 05:43:52;;;;;;;;;5.33;4.33;;;;;17.36;64.13;-19672.78;4992189;28;45384;-75
2022/10/13 05:46:17;;;;;;;;;5.00;5.00;;;;;17.42;63.83;-19674.53;4989445;28;45752;-75
2022/10/13 05:48:43;;;;;;;;;5.67;3.67;;;;;17.39;64.32;-19673.59;4993405;27;47040;-75
2022/10/13 05:51:15;;;;;;;;;4.33;3.33;;;;;17.34;64.24;-19672.41;4995811;28;46633;-76
2022/10/13 05:53:49;;;;;;;;;5.00;5.00;;;;;17.44;64.45;-19674.94;4997862;27;45260;-75
2022/10/13 05:56:20;;;;;;;;;4.33;4.33;;;;;17.48;64.30;-19676.00;4999293;28;45634;-76
2022/10/13 05:58:51;;;;;;;;;6.00;4.67;;;;;17.54;64.31;-19677.63;4995523;27;45471;-74
2022/10/13 06:01:21;;;;;;;;;4.33;4.33;;;;;17.48;63.94;-19676.13;5001072;27;45455;-75
2022/10/13 06:03:49;;;;;;;;;4.00;4.00;;;;;17.50;63.73;-19676.69;5008325;28;45614;-74
2022/10/13 06:06:15;;;;;;;;;5.00;4.00;;;;;17.56;63.75;-19678.16;4997051;28;45646;-75
2022/10/13 06:08:41;;;;;;;;;5.00;5.00;;;;;17.62;63.91;-19679.75;4999454;27;45424;-75
2022/10/13 06:11:07;;;;;;;;;3.33;3.33;;;;;17.62;63.36;-19679.75;4999792;27;45428;-74
2022/10/13 06:13:32;;;;;;;;;8.00;4.67;;;;;17.64;63.22;-19680.16;4987564;28;45454;-75
2022/10/13 06:15:58;;;;;;;;;3.00;3.00;;;;;17.63;63.60;-19679.88;4992701;27;45500;-76
2022/10/13 06:18:23;;;;;;;;;6.00;4.00;;;;;17.65;63.19;-19680.56;4991909;28;48275;-75
2022/10/13 06:20:49;;;;;;;;;4.33;4.33;;;;;17.61;63.09;-19679.50;5003299;28;45450;-76
2022/10/13 06:23:14;;;;;;;;;4.00;4.00;;;;;17.65;63.08;-19680.56;4998797;27;45971;-76
2022/10/13 06:25:50;;;;;;;;;3.00;3.00;;;;;17.40;62.34;-19673.88;4992447;27;45523;-75
2022/10/13 06:28:17;;;;;;;;;3.67;3.00;;;;;17.58;62.49;-19678.69;5000008;27;46169;-74
2022/10/13 06:30:46;;;;;;;;;3.33;3.33;;;;;17.55;62.75;-19677.88;5007532;28;45385;-76
2022/10/13 06:33:12;;;;;;;;;6.00;3.00;;;;;17.55;62.45;-19677.75;5003564;27;45345;-76
2022/10/13 06:35:38;;;;;;;;;4.00;3.33;;;;;17.54;62.63;-19677.63;5001639;27;45567;-76
2022/10/13 06:38:03;;;;;;;;;3.33;3.00;;;;;17.56;62.41;-19678.00;4978376;28;46769;-76
2022/10/13 06:40:28;;;;;;;;;3.33;3.00;;;;;17.48;62.66;-19676.00;5004993;27;45414;-77
2022/10/13 06:42:54;;;;;;;;;4.00;3.00;;;;;17.56;62.35;-19678.00;5007448;27;45456;-75
2022/10/13 06:45:19;;;;;;;;;3.33;3.33;;;;;17.46;62.67;-19675.59;5003270;27;45377;-77
2022/10/13 06:47:45;;;;;;;;;3.00;3.00;;;;;17.48;62.50;-19676.13;5001742;27;45543;-76
2022/10/13 06:50:11;;;;;;;;;4.00;3.00;;;;;17.51;62.75;-19676.94;4994761;27;45383;-77
2022/10/13 06:52:37;;;;;;;;;8.00;3.00;;;;;17.49;62.74;-19676.41;4995478;27;45367;-77
2022/10/13 06:55:03;;;;;;;;;4.00;4.00;;;;;17.45;63.31;-19675.22;5058481;28;45401;-77
2022/10/13 06:57:29;;;;;;;;;4.67;4.00;;;;;17.45;62.88;-19675.34;4974651;28;47092;-77
2022/10/13 06:59:54;;;;;;;;;4.00;4.00;;;;;17.30;63.30;-19671.31;5029840;27;45439;-77
2022/10/13 07:02:20;;;;;;;;;3.33;3.00;;;;;17.51;62.96;-19676.94;5025268;27;45536;-77
2022/10/13 07:04:46;;;;;;;;;3.00;3.00;;;;;17.49;63.25;-19676.41;4989945;28;45441;-78
2022/10/13 07:07:12;;;;;;;;;6.00;5.67;;;;;17.51;63.77;-19676.81;4987671;27;46703;-76
2022/10/13 07:09:38;;;;;;;;;2.33;2.33;;;;;17.43;63.05;-19674.81;4995144;27;45477;-77
2022/10/13 07:12:03;;;;;;;;;4.00;2.33;;;;;17.53;63.79;-19677.34;4995343;27;45324;-78
2022/10/13 07:14:28;;;;;;;;;3.00;3.00;;;;;17.51;63.49;-19676.94;4995582;27;45431;-79
2022/10/13 07:16:54;;;;;;;;;7.00;4.33;;;;;17.29;64.10;-19671.06;4994972;27;46024;-78
2022/10/13 07:19:21;;;;;;;;;3.00;3.00;;;;;17.42;65.23;-19674.53;4995407;27;45413;-78
2022/10/13 07:21:47;;;;;;;;;3.33;3.33;;;;;17.45;66.18;-19675.22;4995343;27;45556;-77
2022/10/13 07:24:12;;;;;;;;;5.33;5.00;;;;;17.37;66.21;-19673.06;4984915;28;45423;-75
2022/10/13 07:26:38;;;;;;;;;6.00;4.33;;;;;17.36;67.97;-19672.78;5053369;28;47989;-77
2022/10/13 07:29:03;;;;;;;;;5.00;4.00;;;;;17.37;68.49;-19673.06;4995299;27;45474;-78
2022/10/13 07:31:29;;;;;;;;;5.67;4.00;;;;;17.32;68.75;-19671.72;4994810;27;45423;-77
2022/10/13 07:33:55;;;;;;;;;5.00;5.00;;;;;17.26;68.97;-19670.25;4995460;27;45507;-78
2022/10/13 07:36:21;;;;;;;;;8.00;5.00;;;;;17.29;69.28;-19671.06;4994956;27;46137;-77
2022/10/13 07:38:46;;;;;;;;;7.00;4.67;;;;;17.26;68.92;-19670.38;4994811;27;45440;-77
2022/10/13 07:41:13;;;;;;;;;5.33;5.33;;;;;17.34;69.40;-19672.41;4995113;27;45538;-76
2022/10/13 07:43:38;;;;;;;;;4.00;4.00;;;;;17.39;69.03;-19673.59;4986409;27;45519;-75
2022/10/13 07:46:05;;;;;;;;;11.00;6.00;;;;;17.29;69.48;-19671.06;4988748;27;45432;-76
2022/10/13 07:48:31;;;;;;;;;7.00;5.00;;;;;17.45;69.41;-19675.22;4994858;27;45400;-76
2022/10/13 07:50:57;;;;;;;;;6.33;6.33;;;;;17.46;69.00;-19675.47;4994795;27;45544;-76
2022/10/13 07:53:22;;;;;;;;;6.67;5.00;;;;;17.28;68.50;-19670.78;4994924;27;45456;-78
2022/10/13 07:55:48;;;;;;;;;4.33;4.33;;;;;17.38;68.38;-19673.47;4977165;28;47033;-78
2022/10/13 07:58:14;;;;;;;;;5.67;2.33;;;;;17.38;68.48;-19673.34;4994818;27;45479;-74
2022/10/13 08:00:39;;;;;;;;;3.33;3.33;;;;;17.42;68.84;-19674.41;4993283;27;45551;-75
2022/10/13 08:03:04;;;;;;;;;5.33;4.00;;;;;17.51;68.11;-19676.94;4995142;28;45372;-76
2022/10/13 08:05:30;;;;;;;;;5.00;3.33;;;;;17.45;68.82;-19675.34;4987974;27;46402;-78
2022/10/13 08:07:55;;;;;;;;;2.00;2.00;;;;;17.50;68.37;-19676.69;4996895;27;45431;-77
2022/10/13 08:10:21;;;;;;;;;6.00;5.00;;;;;17.57;69.07;-19678.41;4991351;27;45374;-79
2022/10/13 08:12:46;;;;;;;;;5.00;3.00;;;;;17.48;67.98;-19676.00;4993304;27;45483;-79
2022/10/13 08:15:12;;;;;;;;;7.00;4.33;;;;;17.46;68.23;-19675.59;5010452;27;46205;-79
2022/10/13 08:17:37;;;;;;;;;3.33;2.00;;;;;17.54;68.22;-19677.47;4998718;27;45484;-81
2022/10/13 08:20:04;;;;;;;;;5.00;5.00;;;;;17.53;67.23;-19677.34;5009769;27;45499;-77
2022/10/13 08:22:30;;;;;;;;;3.00;3.00;;;;;17.52;67.47;-19677.06;5021310;27;45487;-81
2022/10/13 08:24:55;;;;;;;;;7.33;3.33;;;;;17.52;68.08;-19677.06;5014992;27;47594;-81
2022/10/13 08:27:23;;;;;;;;;4.00;4.00;;;;;17.37;67.55;-19673.19;5010415;27;45349;-81
2022/10/13 08:29:49;;;;;;;;;4.33;3.00;;;;;17.62;67.13;-19679.75;4987844;27;45693;-79
2022/10/13 08:32:15;;;;;;;;;3.33;3.33;;;;;17.61;66.96;-19679.34;5000159;27;45425;-81
2022/10/13 08:34:40;;;;;;;;;8.00;1.67;;;;;17.64;67.10;-19680.28;4977330;28;45334;-80
2022/10/13 08:37:12;;;;;;;;;5.00;5.00;;;;;17.63;67.31;-19679.88;4996011;27;45456;-81
2022/10/13 08:39:38;;;;;;;;;3.00;3.00;;;;;17.79;66.59;-19684.16;4978676;27;45451;-81
2022/10/13 08:42:13;;;;;;;;;4.00;2.00;;;;;17.84;65.91;-19685.38;4982359;27;45461;-79
2022/10/13 08:44:45;;;;;;;;;3.00;3.00;;;;;17.93;65.58;-19687.78;4990349;27;47105;-79
2022/10/13 08:47:32;;;;;;;;;4.00;2.33;;;;;17.95;65.58;-19688.31;5019919;27;46525;-77
2022/10/13 08:50:02;;;;;;;;;2.00;2.00;;;;;17.96;65.27;-19688.44;4985177;27;45436;-77
2022/10/13 08:52:43;;;;;;;;;2.00;2.00;;;;;17.95;65.74;-19688.19;4968439;28;45638;-74
2022/10/13 08:55:22;;;;;;;;;2.67;2.67;;;;;18.01;65.14;-19689.78;5001145;27;46699;-77
2022/10/13 08:57:47;;;;;;;;;3.00;2.00;;;;;18.07;65.16;-19691.53;4958585;28;45547;-77
2022/10/13 09:00:13;;;;;;;;;4.00;4.00;;;;;18.05;64.95;-19690.84;4991595;28;45369;-74
2022/10/13 09:02:41;;;;;;;;;3.00;2.00;;;;;18.23;65.15;-19695.66;4986102;28;45362;-75
2022/10/13 09:05:17;;;;;;;;;6.67;3.33;;;;;18.29;64.62;-19697.16;4991036;28;45473;-74
2022/10/13 09:07:44;;;;;;;;;2.67;2.00;;;;;18.30;64.28;-19697.53;4989725;27;45394;-74
2022/10/13 09:10:10;;;;;;;;;2.00;2.00;;;;;18.31;64.50;-19697.81;4987512;27;45432;-79
2022/10/13 09:12:36;;;;;;;;;3.00;3.00;;;;;18.45;63.94;-19701.41;4994414;27;45533;-75
2022/10/13 09:15:04;;;;;;;;;4.33;1.33;;;;;18.47;63.62;-19701.81;4986683;27;46244;-75
2022/10/13 09:17:32;;;;;;;;;7.00;4.00;;;;;18.48;63.81;-19702.22;4991972;28;45407;-73
2022/10/13 09:20:18;;;;;;;;;3.00;3.00;;;;;18.52;64.16;-19703.16;4990264;27;45530;-72
2022/10/13 09:22:58;;;;;;;;;3.33;3.33;;;;;18.55;63.30;-19703.97;4992425;27;45713;-73
2022/10/13 09:25:23;;;;;;;;;3.00;3.00;;;;;18.58;63.05;-19704.75;4985104;27;46183;-73
2022/10/13 09:27:59;;;;;;;;;5.67;3.00;;;;;18.50;63.57;-19702.75;4992671;27;45540;-72
2022/10/13 09:30:30;;;;;;;;;2.00;2.00;;;;;18.50;63.82;-19702.75;4987903;28;45520;-72
2022/10/13 09:33:20;;;;;;;;;3.00;1.67;;;;;18.52;63.58;-19703.16;4989176;28;45500;-72
2022/10/13 09:36:10;;;;;;;;;1.33;1.33;;;;;18.43;63.62;-19700.75;4980697;27;46131;-72
2022/10/13 09:38:36;;;;;;;;;3.33;1.33;;;;;18.37;63.88;-19699.16;5016690;27;45551;-72
2022/10/13 09:41:09;;;;;;;;;3.33;2.33;;;;;18.59;63.78;-19704.88;4989255;27;47597;-72
2022/10/13 09:43:39;;;;;;;;;2.00;2.00;;;;;18.59;63.11;-19705.03;4987179;27;46071;-72
2022/10/13 09:46:51;;;;;;;;;5.00;2.67;;;;;18.65;63.50;-19706.63;4998956;27;46431;-72
2022/10/13 09:49:27;;;;;;;;;3.67;2.00;;;;;18.81;63.56;-19710.78;4995225;27;45484;-71
2022/10/13 09:51:59;;;;;;;;;3.00;1.00;;;;;18.87;62.91;-19712.25;4992093;27;45728;-72
2022/10/13 09:54:39;;;;;;;;;3.33;1.00;;;;;18.88;63.03;-19712.66;4992703;27;45240;-72
2022/10/13 09:57:29;;;;;;;;;4.00;3.00;;;;;18.91;62.99;-19713.44;4990089;27;46559;-71
2022/10/13 10:00:03;;;;;;;;;1.00;1.00;;;;;18.92;63.04;-19713.59;4989168;28;46060;-72
2022/10/13 10:03:09;;;;;;;;;2.00;2.00;;;;;18.95;62.79;-19714.50;4993410;27;45486;-74
2022/10/13 10:05:34;;;;;;;;;1.67;1.67;;;;;18.93;62.85;-19713.97;5018354;28;45430;-74
2022/10/13 10:08:11;;;;;;;;;3.00;2.00;;;;;18.76;62.97;-19709.56;5016634;28;46102;-74
2022/10/13 10:10:39;;;;;;;;;3.00;3.00;;;;;18.69;62.99;-19707.56;5016375;28;45249;-74
2022/10/13 10:13:05;;;;;;;;;2.67;2.00;;;;;18.74;63.42;-19709.03;4998983;28;45487;-73
2022/10/13 10:15:45;;;;;;;;;4.00;2.33;;;;;18.68;62.65;-19707.44;5014383;28;45597;-73
2022/10/13 10:18:53;;;;;;;;;2.67;2.67;;;;;18.81;63.59;-19710.78;5015368;28;45662;-73
2022/10/13 10:21:30;;;;;;;;;3.00;3.00;;;;;18.82;63.59;-19711.03;5006128;28;47737;-73
2022/10/13 10:24:33;;;;;;;;;5.00;2.00;;;;;18.81;63.55;-19710.78;5016692;28;45385;-74
2022/10/13 10:27:02;;;;;;;;;2.00;2.00;;;;;18.74;63.40;-19708.91;5013450;28;45630;-73
2022/10/13 10:29:54;;;;;;;;;3.00;3.00;;;;;18.73;63.72;-19708.63;5016524;28;46223;-74
2022/10/13 10:32:27;;;;;;;;;4.33;2.00;;;;;18.82;63.91;-19710.91;5017745;28;45421;-74
2022/10/13 10:35:00;;;;;;;;;2.00;2.00;;;;;18.83;63.96;-19711.31;5012647;28;45545;-74
2022/10/13 10:38:04;;;;;;;;;2.33;2.33;;;;;18.83;63.90;-19711.19;5016511;28;45284;-74
2022/10/13 10:40:33;;;;;;;;;5.00;2.00;;;;;18.80;63.88;-19710.50;5015899;28;46157;-77
2022/10/13 10:43:25;;;;;;;;;2.33;2.33;;;;;18.80;63.86;-19710.38;5018794;27;45414;-74
2022/10/13 10:45:55;;;;;;;;;3.00;3.00;;;;;18.72;63.71;-19708.50;5044785;28;45446;-74
2022/10/13 10:48:30;;;;;;;;;2.67;1.33;;;;;18.73;64.03;-19708.63;5056192;28;45596;-74
2022/10/13 10:50:56;;;;;;;;;2.00;2.00;;;;;18.82;63.79;-19711.03;5055389;28;47350;-73
2022/10/13 10:53:36;;;;;;;;;2.00;2.00;;;;;18.82;64.06;-19711.03;5037684;28;45714;-74
2022/10/13 10:56:13;;;;;;;;;3.33;3.33;;;;;18.83;64.02;-19711.19;5045782;27;45554;-73
2022/10/13 10:58:42;;;;;;;;;2.00;2.00;;;;;18.83;64.39;-19711.31;5054840;28;45571;-74
2022/10/13 11:01:10;;;;;;;;;2.33;2.33;;;;;18.77;63.98;-19709.84;5052852;28;46296;-73
2022/10/13 11:04:14;;;;;;;;;4.67;2.33;;;;;18.69;64.70;-19707.56;5054086;28;45539;-72
2022/10/13 11:06:39;;;;;;;;;54.33;41.67;;;;;18.66;64.76;-19706.91;5043982;28;45480;-71
2022/10/13 11:09:06;;;;;;;;;3.00;3.00;;;;;18.61;65.40;-19705.56;5056200;28;45428;-71
2022/10/13 11:11:37;;;;;;;;;4.33;3.00;;;;;18.56;65.30;-19704.34;5056021;28;46314;-71
2022/10/13 11:14:05;;;;;;;;;3.00;3.00;;;;;18.64;65.18;-19706.22;5055874;28;45752;-71
2022/10/13 11:16:55;;;;;;;;;2.00;2.00;;;;;18.64;65.29;-19706.22;5055636;28;45440;-71
2022/10/13 11:19:27;;;;;;;;;4.67;2.67;;;;;18.59;65.50;-19704.88;5056280;28;45392;-71
2022/10/13 11:21:53;;;;;;;;;4.00;2.67;;;;;18.65;65.92;-19706.50;5052368;28;46090;-71
2022/10/13 11:24:48;;;;;;;;;2.00;2.00;;;;;18.62;67.20;-19705.69;4987842;27;45460;-71
2022/10/13 11:27:14;;;;;;;;;4.00;2.00;;;;;18.64;67.69;-19706.22;4995802;27;45392;-71
2022/10/13 11:29:50;;;;;;;;;3.00;2.33;;;;;18.66;68.49;-19706.91;4995468;27;45468;-73
2022/10/13 11:35:19;;;;;;;;;6.00;4.00;;;;;18.63;70.31;-19706.09;4995130;27;45723;-71